createdAt,value
2022-10-09T00:01:04.715Z,10.30
2022-10-09T00:04:06.946Z,9.52
2022-10-09T00:07:09.115Z,10.60
2022-10-09T00:10:11.303Z,10.07
2022-10-09T00:13:13.599Z,14.77
2022-10-09T00:16:17.107Z,12.90
2022-10-09T00:19:19.353Z,10.88
2022-10-09T00:22:21.526Z,12.15
2022-10-09T00:25:23.694Z,10.88
2022-10-09T00:28:27.715Z,10.15
2022-10-09T00:31:30.101Z,8.32
2022-10-09T00:34:32.422Z,9.35
2022-10-09T00:37:34.649Z,9.18
2022-10-09T00:40:37.594Z,8.50
2022-10-09T00:43:47.874Z,8.27
2022-10-09T00:46:51.078Z,10.45
2022-10-09T00:49:56.066Z,8.73
2022-10-09T00:53:00.357Z,10.02
2022-10-09T00:56:02.614Z,9.70
2022-10-09T00:59:05.501Z,9.32
2022-10-09T01:02:07.952Z,9.02
2022-10-09T01:05:10.888Z,8.60
2022-10-09T01:08:38.460Z,9.18
2022-10-09T01:11:57.502Z,7.80
2022-10-09T01:15:02.801Z,8.05
2022-10-09T01:18:13.009Z,7.45
2022-10-09T01:21:41.879Z,7.93
2022-10-09T01:25:09.434Z,8.30
2022-10-09T01:28:13.047Z,7.55
2022-10-09T01:31:17.316Z,8.32
2022-10-09T01:34:20.498Z,8.40
2022-10-09T01:37:23.578Z,8.95
2022-10-09T01:40:26.981Z,7.75
2022-10-09T01:43:29.108Z,7.53
2022-10-09T01:46:32.816Z,7.65
2022-10-09T01:49:54.131Z,7.90
2022-10-09T01:53:01.615Z,8.05
2022-10-09T01:56:14.991Z,7.90
2022-10-09T01:59:18.955Z,8.48
2022-10-09T02:02:21.723Z,8.63
2022-10-09T02:05:26.957Z,8.43
2022-10-09T02:08:30.783Z,8.60
2022-10-09T02:11:33.476Z,7.97
2022-10-09T02:14:36.699Z,8.68
2022-10-09T02:17:44.428Z,7.87
2022-10-09T02:20:50.404Z,7.95
2022-10-09T02:23:53.702Z,8.82
2022-10-09T02:26:57.496Z,9.30
2022-10-09T02:30:00.438Z,10.00
2022-10-09T02:33:04.671Z,9.20
2022-10-09T02:36:06.943Z,8.35
2022-10-09T02:39:09.623Z,8.10
2022-10-09T02:42:11.993Z,8.98
2022-10-09T02:45:14.321Z,8.38
2022-10-09T02:48:16.530Z,9.00
2022-10-09T02:51:18.849Z,8.70
2022-10-09T02:54:21.004Z,8.65
2022-10-09T02:57:23.215Z,8.35
2022-10-09T03:00:25.372Z,8.18
2022-10-09T03:03:27.528Z,9.02
2022-10-09T03:06:29.687Z,8.50
2022-10-09T03:09:33.883Z,9.23
2022-10-09T03:12:36.170Z,8.95
2022-10-09T03:15:38.472Z,10.40
2022-10-09T03:18:40.877Z,9.38
2022-10-09T03:21:43.077Z,8.55
2022-10-09T03:24:45.254Z,8.90
2022-10-09T03:27:47.385Z,9.07
2022-10-09T03:30:49.560Z,8.88
2022-10-09T03:33:51.773Z,11.32
2022-10-09T03:36:53.907Z,13.40
2022-10-09T03:39:56.160Z,12.07
2022-10-09T03:42:58.423Z,13.57
2022-10-09T03:46:04.529Z,10.82
2022-10-09T03:49:06.847Z,10.35
2022-10-09T03:52:09.057Z,11.15
2022-10-09T03:55:11.254Z,10.27
2022-10-09T03:58:13.433Z,11.23
2022-10-09T04:01:15.732Z,10.43
2022-10-09T04:04:18.167Z,11.63
2022-10-09T04:07:20.400Z,11.12
2022-10-09T04:10:22.987Z,9.95
2022-10-09T04:13:25.293Z,11.77
2022-10-09T04:16:27.505Z,10.95
2022-10-09T04:19:29.697Z,12.02
2022-10-09T04:22:31.874Z,10.98
2022-10-09T04:25:34.236Z,10.80
2022-10-09T04:28:36.477Z,12.75
2022-10-09T04:31:38.705Z,13.23
2022-10-09T04:34:41.086Z,10.90
2022-10-09T04:37:43.234Z,13.10
2022-10-09T04:40:46.054Z,12.60
2022-10-09T04:43:48.246Z,12.98
2022-10-09T04:46:51.611Z,11.57
2022-10-09T04:49:53.861Z,11.70
2022-10-09T04:52:55.998Z,11.27
2022-10-09T04:55:58.248Z,12.48
2022-10-09T04:59:00.448Z,11.23
2022-10-09T05:02:02.667Z,11.75
2022-10-09T05:05:05.211Z,10.68
2022-10-09T05:08:07.448Z,14.05
2022-10-09T05:11:12.132Z,12.77
2022-10-09T05:14:14.515Z,14.05
2022-10-09T05:17:20.657Z,17.35
2022-10-09T05:20:25.073Z,11.93
2022-10-09T05:23:27.526Z,14.18
2022-10-09T05:26:29.837Z,16.92
2022-10-09T05:29:33.012Z,28.17
2022-10-09T05:32:35.178Z,21.73
2022-10-09T05:35:37.316Z,14.05
2022-10-09T05:38:40.303Z,10.77
2022-10-09T05:41:42.453Z,11.93
2022-10-09T05:44:44.612Z,14.75
2022-10-09T05:47:46.814Z,13.15
2022-10-09T05:50:49.052Z,13.98
2022-10-09T05:53:51.821Z,13.62
2022-10-09T05:56:53.947Z,19.45
2022-10-09T05:59:56.109Z,14.27
2022-10-09T06:02:58.330Z,12.30
2022-10-09T06:06:01.913Z,12.88
2022-10-09T06:09:04.616Z,12.35
2022-10-09T06:12:06.887Z,13.15
2022-10-09T06:15:09.362Z,13.62
2022-10-09T06:18:11.507Z,13.05
2022-10-09T06:21:14.935Z,12.90
2022-10-09T06:24:27.824Z,12.98
2022-10-09T06:27:31.193Z,12.73
2022-10-09T06:30:37.807Z,12.45
2022-10-09T06:33:44.634Z,12.15
2022-10-09T06:36:46.793Z,12.45
2022-10-09T06:39:48.938Z,12.35
2022-10-09T06:42:51.642Z,10.00
2022-10-09T06:45:54.091Z,10.88
2022-10-09T06:48:56.501Z,11.35
2022-10-09T06:51:58.639Z,9.23
2022-10-09T06:55:00.817Z,10.50
2022-10-09T06:58:03.184Z,9.35
2022-10-09T07:01:05.462Z,9.52
2022-10-09T07:04:11.823Z,9.63
2022-10-09T07:07:13.989Z,8.93
2022-10-09T07:10:16.268Z,8.70
2022-10-09T07:13:18.442Z,8.52
2022-10-09T07:16:22.487Z,8.27
2022-10-09T07:19:24.724Z,8.13
2022-10-09T07:22:27.246Z,7.35
2022-10-09T07:25:29.736Z,7.65
2022-10-09T07:28:32.027Z,7.43
2022-10-09T07:31:34.327Z,7.60
2022-10-09T07:34:36.565Z,7.80
2022-10-09T07:37:38.704Z,7.35
2022-10-09T07:40:40.861Z,7.90
2022-10-09T07:43:43.170Z,7.95
2022-10-09T07:46:45.512Z,7.35
2022-10-09T07:49:47.813Z,7.40
2022-10-09T07:52:50.295Z,7.50
2022-10-09T07:55:52.667Z,7.15
2022-10-09T07:58:56.923Z,7.55
2022-10-09T08:01:59.156Z,7.25
2022-10-09T08:05:01.341Z,6.12
2022-10-09T08:08:03.567Z,6.30
2022-10-09T08:11:13.224Z,6.75
2022-10-09T08:14:19.226Z,6.43
2022-10-09T08:17:21.830Z,6.60
2022-10-09T08:20:24.143Z,5.80
2022-10-09T08:23:26.871Z,5.93
2022-10-09T08:26:30.155Z,6.25
2022-10-09T08:29:36.634Z,5.95
2022-10-09T08:32:41.607Z,6.25
2022-10-09T08:35:43.981Z,5.10
2022-10-09T08:38:47.881Z,7.25
2022-10-09T08:41:53.443Z,5.57
2022-10-09T08:44:55.627Z,4.75
2022-10-09T08:48:01.073Z,5.47
2022-10-09T08:51:03.940Z,6.30
2022-10-09T08:54:35.999Z,5.95
2022-10-09T08:57:39.541Z,4.95
2022-10-09T09:00:45.890Z,5.57
2022-10-09T09:03:50.728Z,4.50
2022-10-09T09:06:58.649Z,7.70
2022-10-09T09:10:14.997Z,6.10
2022-10-09T09:13:29.516Z,5.37
2022-10-09T09:16:48.042Z,5.43
2022-10-09T09:19:57.413Z,6.10
2022-10-09T09:23:01.260Z,5.40
2022-10-09T09:26:04.390Z,5.40
2022-10-09T09:29:06.762Z,6.45
2022-10-09T09:32:16.579Z,5.62
2022-10-09T09:35:51.188Z,7.57
2022-10-09T09:39:40.793Z,8.35
2022-10-09T09:42:18.275Z,6.15
2022-10-09T09:45:23.399Z,6.70
2022-10-09T09:48:28.551Z,8.85
2022-10-09T09:51:32.336Z,6.40
2022-10-09T09:54:34.531Z,5.35
2022-10-09T09:57:40.541Z,5.10
2022-10-09T10:00:53.692Z,5.07
2022-10-09T10:04:01.180Z,4.72
2022-10-09T10:07:05.921Z,6.28
2022-10-09T10:10:26.633Z,5.30
2022-10-09T10:13:35.944Z,4.30
2022-10-09T10:16:38.875Z,4.62
2022-10-09T10:19:41.373Z,4.65
2022-10-09T10:22:53.859Z,4.55
2022-10-09T10:25:57.276Z,4.72
2022-10-09T10:29:08.082Z,4.20
2022-10-09T10:32:17.528Z,4.37
2022-10-09T10:35:29.952Z,4.85
2022-10-09T10:38:52.406Z,4.70
2022-10-09T10:41:57.581Z,4.35
2022-10-09T10:45:19.530Z,4.30
2022-10-09T10:48:25.588Z,6.18
2022-10-09T10:51:46.307Z,3.70
2022-10-09T10:54:53.824Z,3.62
2022-10-09T10:58:04.911Z,4.47
2022-10-09T11:04:54.662Z,4.65
2022-10-09T11:08:08.263Z,4.15
2022-10-09T11:11:16.449Z,4.28
2022-10-09T11:14:30.709Z,4.03
2022-10-09T11:17:46.220Z,3.90
2022-10-09T11:20:54.102Z,4.00
2022-10-09T11:24:09.108Z,4.43
2022-10-09T11:27:17.822Z,8.10
2022-10-09T11:30:20.203Z,6.25
2022-10-09T11:33:33.320Z,4.60
2022-10-09T11:36:43.935Z,3.85
2022-10-09T11:39:46.571Z,4.37
2022-10-09T11:43:08.899Z,4.50
2022-10-09T11:46:18.140Z,4.20
2022-10-09T11:49:52.872Z,4.07
2022-10-09T11:52:58.691Z,4.05
2022-10-09T11:56:05.026Z,4.35
2022-10-09T11:59:07.682Z,5.00
2022-10-09T12:02:24.491Z,4.12
2022-10-09T12:05:35.759Z,3.97
2022-10-09T12:12:07.497Z,8.00
2022-10-09T12:15:12.547Z,4.65
2022-10-09T12:18:26.397Z,4.62
2022-10-09T12:21:32.867Z,4.65
2022-10-09T12:25:27.473Z,6.40
2022-10-09T12:28:35.867Z,4.05
2022-10-09T12:31:40.477Z,4.70
2022-10-09T12:34:47.234Z,4.43
2022-10-09T12:37:49.498Z,4.62
2022-10-09T12:40:52.189Z,4.50
2022-10-09T12:43:55.750Z,4.78
2022-10-09T12:47:09.332Z,3.95
2022-10-09T12:50:17.072Z,4.07
2022-10-09T12:53:30.117Z,4.10
2022-10-09T12:56:33.531Z,4.78
2022-10-09T12:59:35.745Z,4.00
2022-10-09T13:02:37.951Z,4.12
2022-10-09T13:05:41.732Z,3.92
2022-10-09T13:08:44.358Z,3.90
2022-10-09T13:11:52.926Z,4.35
2022-10-09T13:14:58.650Z,4.35
2022-10-09T13:18:01.417Z,4.03
2022-10-09T13:21:18.994Z,3.90
2022-10-09T13:24:21.309Z,4.32
2022-10-09T13:27:33.216Z,3.92
2022-10-09T13:30:35.421Z,3.90
2022-10-09T13:33:37.714Z,3.90
2022-10-09T13:36:40.094Z,3.97
2022-10-09T13:39:42.375Z,4.35
2022-10-09T13:42:52.625Z,3.95
2022-10-09T13:45:55.056Z,3.80
2022-10-09T13:48:57.320Z,3.03
2022-10-09T13:51:59.472Z,3.65
2022-10-09T13:55:01.665Z,3.67
2022-10-09T13:58:03.939Z,4.25
2022-10-09T14:01:08.318Z,3.37
2022-10-09T14:04:10.524Z,3.28
2022-10-09T14:07:13.026Z,3.80
2022-10-09T14:10:18.236Z,4.12
2022-10-09T14:13:23.250Z,3.80
2022-10-09T14:16:26.652Z,3.65
2022-10-09T14:19:28.843Z,5.70
2022-10-09T14:22:31.290Z,4.00
2022-10-09T14:25:36.657Z,4.50
2022-10-09T14:28:38.931Z,4.07
2022-10-09T14:31:41.224Z,6.07
2022-10-09T14:34:43.425Z,3.53
2022-10-09T14:37:45.623Z,4.90
2022-10-09T14:40:47.802Z,4.72
2022-10-09T14:43:56.764Z,3.17
2022-10-09T14:46:59.162Z,3.97
2022-10-09T14:50:01.456Z,4.15
2022-10-09T14:53:03.695Z,3.80
2022-10-09T14:56:08.101Z,3.45
2022-10-09T14:59:10.287Z,3.87
2022-10-09T15:02:15.151Z,4.93
2022-10-09T15:05:17.412Z,4.53
2022-10-09T15:08:19.611Z,3.72
2022-10-09T15:11:22.083Z,3.17
2022-10-09T15:14:24.217Z,3.20
2022-10-09T15:17:26.451Z,3.08
2022-10-09T15:20:28.735Z,3.15
2022-10-09T15:23:31.501Z,3.37
2022-10-09T15:26:36.428Z,2.97
2022-10-09T15:29:38.567Z,3.37
2022-10-09T15:32:43.139Z,3.62
2022-10-09T15:35:45.542Z,4.03
2022-10-09T15:38:47.857Z,5.90
2022-10-09T15:41:50.282Z,7.07
2022-10-09T15:44:54.142Z,5.75
2022-10-09T15:47:56.293Z,4.55
2022-10-09T15:51:04.069Z,5.12
2022-10-09T15:54:06.444Z,6.03
2022-10-09T15:57:11.311Z,5.65
2022-10-09T16:00:14.189Z,4.35
2022-10-09T16:03:17.333Z,5.00
2022-10-09T16:06:22.604Z,3.33
2022-10-09T16:09:25.188Z,2.80
2022-10-09T16:12:27.521Z,2.67
2022-10-09T16:15:29.719Z,2.62
2022-10-09T16:18:31.990Z,2.60
2022-10-09T16:21:34.354Z,3.12
2022-10-09T16:24:36.505Z,2.60
2022-10-09T16:27:38.689Z,2.50
2022-10-09T16:30:42.848Z,2.95
2022-10-09T16:33:45.142Z,2.80
2022-10-09T16:36:47.306Z,2.45
2022-10-09T16:39:49.522Z,2.55
2022-10-09T16:42:51.973Z,2.85
2022-10-09T16:45:54.384Z,2.55
2022-10-09T16:48:57.285Z,2.55
2022-10-09T16:52:00.615Z,2.45
2022-10-09T16:55:03.001Z,1.95
2022-10-09T16:58:05.215Z,3.00
2022-10-09T17:01:10.177Z,2.17
2022-10-09T17:04:13.174Z,2.60
2022-10-09T17:07:15.516Z,2.20
2022-10-09T17:10:17.690Z,2.08
2022-10-09T17:13:19.934Z,2.40
2022-10-09T17:16:23.126Z,2.75
2022-10-09T17:19:25.552Z,2.92
2022-10-09T17:22:27.728Z,2.50
2022-10-09T17:25:30.395Z,2.45
2022-10-09T17:28:34.584Z,2.42
2022-10-09T17:31:36.885Z,2.65
2022-10-09T17:34:43.093Z,2.97
2022-10-09T17:37:45.312Z,3.10
2022-10-09T17:40:47.605Z,2.30
2022-10-09T17:43:50.907Z,2.10
2022-10-09T17:46:53.043Z,2.30
2022-10-09T17:49:55.358Z,2.05
2022-10-09T17:52:57.527Z,1.90
2022-10-09T17:56:03.728Z,2.45
2022-10-09T17:59:05.987Z,2.30
2022-10-09T18:02:08.178Z,2.08
2022-10-09T18:05:10.342Z,2.58
2022-10-09T18:08:14.219Z,2.08
2022-10-09T18:11:17.076Z,2.30
2022-10-09T18:14:19.298Z,2.30
2022-10-09T18:17:21.797Z,2.22
2022-10-09T18:20:24.004Z,2.10
2022-10-09T18:23:26.215Z,2.42
2022-10-09T18:26:28.599Z,2.53
2022-10-09T18:29:30.817Z,2.40
2022-10-09T18:32:32.986Z,2.30
2022-10-09T18:35:37.554Z,2.87
2022-10-09T18:38:40.268Z,2.40
2022-10-09T18:41:43.097Z,2.55
2022-10-09T18:44:45.355Z,1.90
2022-10-09T18:47:47.691Z,2.10
2022-10-09T18:50:50.320Z,1.87
2022-10-09T18:53:55.511Z,2.40
2022-10-09T18:56:57.967Z,2.08
2022-10-09T19:00:00.948Z,1.83
2022-10-09T19:03:03.211Z,2.08
2022-10-09T19:06:05.743Z,2.28
2022-10-09T19:09:08.045Z,2.53
2022-10-09T19:12:10.293Z,2.40
2022-10-09T19:15:12.587Z,1.95
2022-10-09T19:18:14.764Z,1.90
2022-10-09T19:21:16.933Z,2.00
2022-10-09T19:24:19.153Z,2.10
2022-10-09T19:27:25.752Z,2.20
2022-10-09T19:30:28.705Z,2.22
2022-10-09T19:33:31.126Z,2.70
2022-10-09T19:36:35.062Z,2.20
2022-10-09T19:39:37.264Z,2.03
2022-10-09T19:42:39.441Z,2.00
2022-10-09T19:45:41.789Z,2.10
2022-10-09T19:48:44.881Z,1.85
2022-10-09T19:51:47.187Z,2.08
2022-10-09T19:54:49.414Z,2.12
2022-10-09T19:57:51.862Z,1.90
2022-10-09T20:00:54.279Z,1.98
2022-10-09T20:04:02.243Z,2.10
2022-10-09T20:07:07.850Z,2.45
2022-10-09T20:10:15.715Z,2.55
2022-10-09T20:13:17.867Z,3.17
2022-10-09T20:16:20.025Z,2.40
2022-10-09T20:19:22.289Z,2.53
2022-10-09T20:22:24.491Z,2.28
2022-10-09T20:25:27.649Z,2.50
2022-10-09T20:28:34.323Z,1.75
2022-10-09T20:31:36.488Z,2.50
2022-10-09T20:34:38.785Z,1.95
2022-10-09T20:37:40.958Z,2.15
2022-10-09T20:40:43.129Z,2.05
2022-10-09T20:43:45.530Z,1.98
2022-10-09T20:46:47.788Z,1.90
2022-10-09T20:49:50.013Z,1.90
2022-10-09T20:52:52.615Z,1.90
2022-10-09T20:56:03.303Z,1.80
2022-10-09T20:59:05.511Z,1.90
2022-10-09T21:02:07.742Z,1.90
2022-10-09T21:05:09.886Z,1.80
2022-10-09T21:08:12.081Z,2.15
2022-10-09T21:11:17.126Z,2.00
2022-10-09T21:14:19.416Z,2.00
2022-10-09T21:17:21.640Z,1.75
2022-10-09T21:20:23.804Z,2.22
2022-10-09T21:23:26.003Z,1.90
2022-10-09T21:26:29.579Z,1.77
2022-10-09T21:29:31.721Z,1.80
2022-10-09T21:32:33.890Z,2.25
2022-10-09T21:35:50.338Z,1.42
2022-10-09T21:38:52.661Z,3.08
2022-10-09T21:41:54.841Z,1.55
2022-10-09T21:44:57.006Z,1.65
2022-10-09T21:47:59.313Z,1.77
2022-10-09T21:51:01.541Z,1.98
2022-10-09T21:54:03.785Z,1.75
2022-10-09T21:57:05.954Z,2.05
2022-10-09T22:00:08.835Z,1.70
2022-10-09T22:03:10.987Z,1.52
2022-10-09T22:06:18.701Z,1.42
2022-10-09T22:09:21.550Z,1.40
2022-10-09T22:12:23.767Z,1.70
2022-10-09T22:15:25.933Z,1.52
2022-10-09T22:18:28.092Z,1.55
2022-10-09T22:21:30.474Z,1.40
2022-10-09T22:24:32.648Z,1.50
2022-10-09T22:27:34.880Z,1.60
2022-10-09T22:30:37.044Z,1.30
2022-10-09T22:33:39.907Z,1.67
2022-10-09T22:36:42.181Z,1.80
2022-10-09T22:39:44.327Z,1.48
2022-10-09T22:42:46.855Z,1.30
2022-10-09T22:45:49.026Z,1.20
2022-10-09T22:48:51.789Z,1.20
2022-10-09T22:51:54.029Z,1.42
2022-10-09T22:54:56.693Z,1.70
2022-10-09T22:57:59.183Z,1.20
2022-10-09T23:01:11.832Z,1.52
2022-10-09T23:04:16.093Z,1.23
2022-10-09T23:07:18.268Z,1.20
2022-10-09T23:10:20.597Z,1.20
2022-10-09T23:13:22.766Z,1.40
2022-10-09T23:16:26.268Z,1.37
2022-10-09T23:19:28.500Z,1.40
2022-10-09T23:22:30.703Z,1.12
2022-10-09T23:25:32.824Z,1.37
2022-10-09T23:28:35.550Z,1.30
2022-10-09T23:31:37.904Z,1.33
2022-10-09T23:34:40.146Z,1.40
2022-10-09T23:37:42.324Z,1.30
2022-10-09T23:40:54.791Z,1.70
2022-10-09T23:43:57.203Z,1.10
2022-10-09T23:46:59.376Z,1.25
2022-10-09T23:50:01.683Z,1.42
2022-10-09T23:53:03.852Z,1.20
2022-10-09T23:56:20.027Z,1.23
2022-10-09T23:59:22.208Z,1.17
